sensor_id;sensor_type;location;lat;lon;timestamp;P1;durP1;ratioP1;P2;durP2;ratioP2
55372;SDS011;70018;47.838;16.490;2024-01-30T00:02:02;10.82;;;4.93;;
55372;SDS011;70018;47.838;16.490;2024-01-30T00:04:29;15.15;;;7.45;;
55372;SDS011;70018;47.838;16.490;2024-01-30T00:06:56;11.40;;;6.88;;
55372;SDS011;70018;47.838;16.490;2024-01-30T00:09:23;12.02;;;5.00;;
55372;SDS011;70018;47.838;16.490;2024-01-30T00:11:49;9.85;;;5.15;;
55372;SDS011;70018;47.838;16.490;2024-01-30T00:14:17;12.63;;;6.22;;
55372;SDS011;70018;47.838;16.490;2024-01-30T00:16:44;16.60;;;5.75;;
55372;SDS011;70018;47.838;16.490;2024-01-30T00:19:11;9.35;;;5.15;;
55372;SDS011;70018;47.838;16.490;2024-01-30T00:21:38;10.25;;;4.20;;
55372;SDS011;70018;47.838;16.490;2024-01-30T00:24:05;10.10;;;5.47;;
55372;SDS011;70018;47.838;16.490;2024-01-30T00:26:32;13.57;;;7.30;;
55372;SDS011;70018;47.838;16.490;2024-01-30T00:28:58;12.45;;;6.35;;
55372;SDS011;70018;47.838;16.490;2024-01-30T00:31:25;7.40;;;5.03;;
55372;SDS011;70018;47.838;16.490;2024-01-30T00:33:52;7.30;;;5.40;;
55372;SDS011;70018;47.838;16.490;2024-01-30T00:36:19;8.75;;;5.40;;
55372;SDS011;70018;47.838;16.490;2024-01-30T00:38:46;10.73;;;4.53;;
55372;SDS011;70018;47.838;16.490;2024-01-30T00:41:13;6.95;;;3.78;;
55372;SDS011;70018;47.838;16.490;2024-01-30T00:43:40;17.60;;;5.50;;
55372;SDS011;70018;47.838;16.490;2024-01-30T00:46:06;14.30;;;6.95;;
55372;SDS011;70018;47.838;16.490;2024-01-30T00:48:33;10.57;;;4.72;;
55372;SDS011;70018;47.838;16.490;2024-01-30T00:51:00;9.95;;;5.43;;
55372;SDS011;70018;47.838;16.490;2024-01-30T00:53:26;17.25;;;6.60;;
55372;SDS011;70018;47.838;16.490;2024-01-30T00:55:53;6.13;;;4.22;;
55372;SDS011;70018;47.838;16.490;2024-01-30T00:58:20;9.82;;;5.53;;
55372;SDS011;70018;47.838;16.490;2024-01-30T01:00:46;10.43;;;5.70;;
55372;SDS011;70018;47.838;16.490;2024-01-30T01:03:13;11.57;;;6.55;;
55372;SDS011;70018;47.838;16.490;2024-01-30T01:05:40;9.70;;;4.65;;
55372;SDS011;70018;47.838;16.490;2024-01-30T01:08:07;11.27;;;5.95;;
55372;SDS011;70018;47.838;16.490;2024-01-30T01:10:35;6.35;;;4.80;;
55372;SDS011;70018;47.838;16.490;2024-01-30T01:13:02;8.73;;;4.53;;
55372;SDS011;70018;47.838;16.490;2024-01-30T01:15:29;9.13;;;5.13;;
55372;SDS011;70018;47.838;16.490;2024-01-30T01:17:56;11.70;;;4.75;;
55372;SDS011;70018;47.838;16.490;2024-01-30T01:20:23;7.80;;;4.55;;
55372;SDS011;70018;47.838;16.490;2024-01-30T01:22:49;10.60;;;5.15;;
55372;SDS011;70018;47.838;16.490;2024-01-30T01:25:16;8.55;;;5.00;;
55372;SDS011;70018;47.838;16.490;2024-01-30T01:27:43;12.88;;;5.15;;
55372;SDS011;70018;47.838;16.490;2024-01-30T01:30:17;9.27;;;4.75;;
55372;SDS011;70018;47.838;16.490;2024-01-30T01:32:48;8.55;;;5.35;;
55372;SDS011;70018;47.838;16.490;2024-01-30T01:35:21;8.85;;;4.45;;
55372;SDS011;70018;47.838;16.490;2024-01-30T01:37:50;17.08;;;5.88;;
55372;SDS011;70018;47.838;16.490;2024-01-30T01:40:26;9.30;;;4.90;;
55372;SDS011;70018;47.838;16.490;2024-01-30T01:42:54;10.25;;;6.03;;
55372;SDS011;70018;47.838;16.490;2024-01-30T01:45:21;12.60;;;5.88;;
55372;SDS011;70018;47.838;16.490;2024-01-30T01:47:51;6.32;;;4.10;;
55372;SDS011;70018;47.838;16.490;2024-01-30T01:50:18;8.73;;;5.00;;
55372;SDS011;70018;47.838;16.490;2024-01-30T01:52:48;10.63;;;5.15;;
55372;SDS011;70018;47.838;16.490;2024-01-30T01:55:16;14.35;;;5.60;;
55372;SDS011;70018;47.838;16.490;2024-01-30T01:57:48;8.20;;;5.93;;
55372;SDS011;70018;47.838;16.490;2024-01-30T02:00:14;14.55;;;5.88;;
55372;SDS011;70018;47.838;16.490;2024-01-30T02:02:42;10.68;;;5.15;;
55372;SDS011;70018;47.838;16.490;2024-01-30T02:05:11;9.20;;;5.40;;
55372;SDS011;70018;47.838;16.490;2024-01-30T02:07:38;6.53;;;4.97;;
55372;SDS011;70018;47.838;16.490;2024-01-30T02:10:06;9.15;;;5.43;;
55372;SDS011;70018;47.838;16.490;2024-01-30T02:12:34;6.38;;;4.40;;
55372;SDS011;70018;47.838;16.490;2024-01-30T02:15:01;11.40;;;5.95;;
55372;SDS011;70018;47.838;16.490;2024-01-30T02:17:27;9.63;;;6.07;;
55372;SDS011;70018;47.838;16.490;2024-01-30T02:19:54;13.55;;;6.13;;
55372;SDS011;70018;47.838;16.490;2024-01-30T02:22:21;11.30;;;6.47;;
55372;SDS011;70018;47.838;16.490;2024-01-30T02:24:49;16.15;;;6.22;;
55372;SDS011;70018;47.838;16.490;2024-01-30T02:27:16;7.70;;;4.63;;
55372;SDS011;70018;47.838;16.490;2024-01-30T02:29:42;10.23;;;5.43;;
55372;SDS011;70018;47.838;16.490;2024-01-30T02:32:09;9.82;;;6.03;;
55372;SDS011;70018;47.838;16.490;2024-01-30T02:34:36;8.68;;;5.35;;
55372;SDS011;70018;47.838;16.490;2024-01-30T02:37:02;11.35;;;6.57;;
55372;SDS011;70018;47.838;16.490;2024-01-30T02:39:29;13.48;;;6.13;;
55372;SDS011;70018;47.838;16.490;2024-01-30T02:41:56;12.95;;;6.72;;
55372;SDS011;70018;47.838;16.490;2024-01-30T02:44:23;10.05;;;4.38;;
55372;SDS011;70018;47.838;16.490;2024-01-30T02:46:50;12.95;;;4.18;;
55372;SDS011;70018;47.838;16.490;2024-01-30T02:49:16;6.80;;;4.88;;
55372;SDS011;70018;47.838;16.490;2024-01-30T02:51:43;15.10;;;7.13;;
55372;SDS011;70018;47.838;16.490;2024-01-30T02:54:10;7.47;;;4.50;;
55372;SDS011;70018;47.838;16.490;2024-01-30T02:56:36;8.77;;;4.88;;
55372;SDS011;70018;47.838;16.490;2024-01-30T02:59:03;8.70;;;5.07;;
55372;SDS011;70018;47.838;16.490;2024-01-30T03:01:30;8.95;;;5.32;;
55372;SDS011;70018;47.838;16.490;2024-01-30T03:03:58;7.38;;;4.82;;
55372;SDS011;70018;47.838;16.490;2024-01-30T03:06:25;10.85;;;6.07;;
55372;SDS011;70018;47.838;16.490;2024-01-30T03:08:51;9.48;;;5.07;;
55372;SDS011;70018;47.838;16.490;2024-01-30T03:11:18;10.18;;;5.75;;
55372;SDS011;70018;47.838;16.490;2024-01-30T03:13:45;14.10;;;5.30;;
55372;SDS011;70018;47.838;16.490;2024-01-30T03:16:11;7.57;;;5.68;;
55372;SDS011;70018;47.838;16.490;2024-01-30T03:18:38;8.32;;;5.82;;
55372;SDS011;70018;47.838;16.490;2024-01-30T03:21:05;10.23;;;5.45;;
55372;SDS011;70018;47.838;16.490;2024-01-30T03:23:32;13.40;;;6.07;;
55372;SDS011;70018;47.838;16.490;2024-01-30T03:25:58;8.38;;;4.60;;
55372;SDS011;70018;47.838;16.490;2024-01-30T03:28:25;12.10;;;5.72;;
55372;SDS011;70018;47.838;16.490;2024-01-30T03:30:52;13.45;;;4.10;;
55372;SDS011;70018;47.838;16.490;2024-01-30T03:33:19;9.55;;;4.65;;
55372;SDS011;70018;47.838;16.490;2024-01-30T03:35:46;10.25;;;5.43;;
55372;SDS011;70018;47.838;16.490;2024-01-30T03:38:12;9.38;;;5.53;;
55372;SDS011;70018;47.838;16.490;2024-01-30T03:40:39;8.90;;;5.15;;
55372;SDS011;70018;47.838;16.490;2024-01-30T03:43:05;6.93;;;4.90;;
55372;SDS011;70018;47.838;16.490;2024-01-30T03:45:32;12.52;;;5.05;;
55372;SDS011;70018;47.838;16.490;2024-01-30T03:47:59;6.55;;;5.05;;
55372;SDS011;70018;47.838;16.490;2024-01-30T03:50:26;9.48;;;5.57;;
55372;SDS011;70018;47.838;16.490;2024-01-30T03:52:52;8.60;;;5.40;;
55372;SDS011;70018;47.838;16.490;2024-01-30T03:55:19;14.02;;;6.75;;
55372;SDS011;70018;47.838;16.490;2024-01-30T03:57:46;10.73;;;5.13;;
55372;SDS011;70018;47.838;16.490;2024-01-30T04:00:13;10.93;;;6.07;;
55372;SDS011;70018;47.838;16.490;2024-01-30T04:02:40;7.38;;;5.10;;
55372;SDS011;70018;47.838;16.490;2024-01-30T04:05:07;12.45;;;5.93;;
55372;SDS011;70018;47.838;16.490;2024-01-30T04:07:34;7.97;;;5.38;;
55372;SDS011;70018;47.838;16.490;2024-01-30T04:10:01;8.80;;;6.00;;
55372;SDS011;70018;47.838;16.490;2024-01-30T04:12:32;11.10;;;6.85;;
55372;SDS011;70018;47.838;16.490;2024-01-30T04:14:58;13.23;;;6.05;;
55372;SDS011;70018;47.838;16.490;2024-01-30T04:17:25;9.40;;;5.05;;
55372;SDS011;70018;47.838;16.490;2024-01-30T04:19:52;13.48;;;5.88;;
55372;SDS011;70018;47.838;16.490;2024-01-30T04:22:19;7.93;;;5.88;;
55372;SDS011;70018;47.838;16.490;2024-01-30T04:24:46;10.50;;;5.95;;
55372;SDS011;70018;47.838;16.490;2024-01-30T04:27:13;8.23;;;5.88;;
55372;SDS011;70018;47.838;16.490;2024-01-30T04:29:39;12.50;;;4.85;;
55372;SDS011;70018;47.838;16.490;2024-01-30T04:32:06;8.88;;;6.00;;
55372;SDS011;70018;47.838;16.490;2024-01-30T04:34:33;8.68;;;5.75;;
55372;SDS011;70018;47.838;16.490;2024-01-30T04:37:00;8.32;;;5.68;;
55372;SDS011;70018;47.838;16.490;2024-01-30T04:39:26;12.02;;;5.35;;
55372;SDS011;70018;47.838;16.490;2024-01-30T04:41:53;9.45;;;6.22;;
55372;SDS011;70018;47.838;16.490;2024-01-30T04:44:20;8.65;;;5.57;;
55372;SDS011;70018;47.838;16.490;2024-01-30T04:46:47;10.07;;;6.47;;
55372;SDS011;70018;47.838;16.490;2024-01-30T04:49:14;8.82;;;5.40;;
55372;SDS011;70018;47.838;16.490;2024-01-30T04:51:40;12.60;;;5.82;;
55372;SDS011;70018;47.838;16.490;2024-01-30T04:54:07;11.52;;;5.38;;
55372;SDS011;70018;47.838;16.490;2024-01-30T04:56:34;15.50;;;6.75;;
55372;SDS011;70018;47.838;16.490;2024-01-30T04:59:02;8.60;;;5.20;;
55372;SDS011;70018;47.838;16.490;2024-01-30T05:01:29;17.63;;;5.93;;
55372;SDS011;70018;47.838;16.490;2024-01-30T05:03:56;8.18;;;6.18;;
55372;SDS011;70018;47.838;16.490;2024-01-30T05:06:26;11.32;;;6.30;;
55372;SDS011;70018;47.838;16.490;2024-01-30T05:08:53;11.15;;;5.97;;
55372;SDS011;70018;47.838;16.490;2024-01-30T05:11:20;19.40;;;5.43;;
55372;SDS011;70018;47.838;16.490;2024-01-30T05:13:46;12.20;;;7.28;;
55372;SDS011;70018;47.838;16.490;2024-01-30T05:16:13;7.95;;;4.78;;
55372;SDS011;70018;47.838;16.490;2024-01-30T05:18:40;10.23;;;5.85;;
55372;SDS011;70018;47.838;16.490;2024-01-30T05:21:07;10.63;;;6.07;;
55372;SDS011;70018;47.838;16.490;2024-01-30T05:23:34;18.50;;;5.95;;
55372;SDS011;70018;47.838;16.490;2024-01-30T05:26:01;14.35;;;6.13;;
55372;SDS011;70018;47.838;16.490;2024-01-30T05:28:29;8.60;;;5.20;;
55372;SDS011;70018;47.838;16.490;2024-01-30T05:30:56;18.58;;;7.25;;
55372;SDS011;70018;47.838;16.490;2024-01-30T05:33:23;9.15;;;5.55;;
55372;SDS011;70018;47.838;16.490;2024-01-30T05:35:50;9.73;;;6.25;;
55372;SDS011;70018;47.838;16.490;2024-01-30T05:38:20;10.05;;;5.68;;
55372;SDS011;70018;47.838;16.490;2024-01-30T05:40:47;8.77;;;5.35;;
55372;SDS011;70018;47.838;16.490;2024-01-30T05:43:13;15.23;;;6.05;;
55372;SDS011;70018;47.838;16.490;2024-01-30T05:45:41;8.80;;;6.30;;
55372;SDS011;70018;47.838;16.490;2024-01-30T05:48:07;7.22;;;4.50;;
55372;SDS011;70018;47.838;16.490;2024-01-30T05:50:34;10.05;;;5.65;;
55372;SDS011;70018;47.838;16.490;2024-01-30T05:53:01;12.98;;;5.88;;
55372;SDS011;70018;47.838;16.490;2024-01-30T05:55:28;13.82;;;6.65;;
55372;SDS011;70018;47.838;16.490;2024-01-30T05:57:54;10.25;;;5.72;;
55372;SDS011;70018;47.838;16.490;2024-01-30T06:00:21;10.68;;;6.38;;
55372;SDS011;70018;47.838;16.490;2024-01-30T06:02:48;9.70;;;5.45;;
55372;SDS011;70018;47.838;16.490;2024-01-30T06:05:15;9.85;;;6.35;;
55372;SDS011;70018;47.838;16.490;2024-01-30T06:07:42;12.73;;;7.03;;
55372;SDS011;70018;47.838;16.490;2024-01-30T06:10:09;11.10;;;6.47;;
55372;SDS011;70018;47.838;16.490;2024-01-30T06:12:35;9.10;;;5.38;;
55372;SDS011;70018;47.838;16.490;2024-01-30T06:15:02;9.95;;;6.18;;
55372;SDS011;70018;47.838;16.490;2024-01-30T06:17:30;8.15;;;5.20;;
55372;SDS011;70018;47.838;16.490;2024-01-30T06:19:56;10.07;;;6.38;;
55372;SDS011;70018;47.838;16.490;2024-01-30T06:22:23;10.77;;;7.63;;
55372;SDS011;70018;47.838;16.490;2024-01-30T06:24:50;10.52;;;7.22;;
55372;SDS011;70018;47.838;16.490;2024-01-30T06:27:17;8.38;;;5.32;;
55372;SDS011;70018;47.838;16.490;2024-01-30T06:29:44;17.40;;;6.80;;
55372;SDS011;70018;47.838;16.490;2024-01-30T06:32:10;16.05;;;7.18;;
55372;SDS011;70018;47.838;16.490;2024-01-30T06:34:37;15.75;;;7.30;;
55372;SDS011;70018;47.838;16.490;2024-01-30T06:37:06;8.77;;;6.05;;
55372;SDS011;70018;47.838;16.490;2024-01-30T06:39:33;13.73;;;7.75;;
55372;SDS011;70018;47.838;16.490;2024-01-30T06:41:59;15.30;;;6.90;;
55372;SDS011;70018;47.838;16.490;2024-01-30T06:44:26;12.18;;;6.15;;
55372;SDS011;70018;47.838;16.490;2024-01-30T06:46:55;11.77;;;6.22;;
55372;SDS011;70018;47.838;16.490;2024-01-30T06:49:22;11.77;;;5.35;;
55372;SDS011;70018;47.838;16.490;2024-01-30T06:51:49;18.05;;;7.80;;
55372;SDS011;70018;47.838;16.490;2024-01-30T06:54:16;14.48;;;6.38;;
55372;SDS011;70018;47.838;16.490;2024-01-30T06:56:43;16.45;;;5.82;;
55372;SDS011;70018;47.838;16.490;2024-01-30T06:59:10;10.82;;;6.32;;
55372;SDS011;70018;47.838;16.490;2024-01-30T07:01:36;10.65;;;6.78;;
55372;SDS011;70018;47.838;16.490;2024-01-30T07:04:03;14.75;;;7.20;;
55372;SDS011;70018;47.838;16.490;2024-01-30T07:06:30;11.82;;;5.78;;
55372;SDS011;70018;47.838;16.490;2024-01-30T07:08:57;18.15;;;6.70;;
55372;SDS011;70018;47.838;16.490;2024-01-30T07:11:23;12.50;;;6.45;;
55372;SDS011;70018;47.838;16.490;2024-01-30T07:13:51;10.75;;;5.93;;
55372;SDS011;70018;47.838;16.490;2024-01-30T07:16:17;16.17;;;5.50;;
55372;SDS011;70018;47.838;16.490;2024-01-30T07:18:44;12.40;;;7.32;;
55372;SDS011;70018;47.838;16.490;2024-01-30T07:21:11;9.98;;;7.00;;
55372;SDS011;70018;47.838;16.490;2024-01-30T07:23:38;21.80;;;7.70;;
55372;SDS011;70018;47.838;16.490;2024-01-30T07:26:08;14.60;;;6.63;;
55372;SDS011;70018;47.838;16.490;2024-01-30T07:28:35;8.55;;;6.07;;
55372;SDS011;70018;47.838;16.490;2024-01-30T07:31:02;9.13;;;6.75;;
55372;SDS011;70018;47.838;16.490;2024-01-30T07:33:29;14.32;;;6.72;;
55372;SDS011;70018;47.838;16.490;2024-01-30T07:35:56;16.92;;;7.60;;
55372;SDS011;70018;47.838;16.490;2024-01-30T07:38:24;9.82;;;6.00;;
55372;SDS011;70018;47.838;16.490;2024-01-30T07:40:50;14.48;;;7.00;;
55372;SDS011;70018;47.838;16.490;2024-01-30T07:43:17;17.33;;;7.57;;
55372;SDS011;70018;47.838;16.490;2024-01-30T07:45:44;12.77;;;6.88;;
55372;SDS011;70018;47.838;16.490;2024-01-30T07:48:11;10.35;;;6.63;;
55372;SDS011;70018;47.838;16.490;2024-01-30T07:50:38;15.55;;;6.78;;
55372;SDS011;70018;47.838;16.490;2024-01-30T07:53:04;11.90;;;6.97;;
55372;SDS011;70018;47.838;16.490;2024-01-30T07:55:31;14.45;;;7.07;;
55372;SDS011;70018;47.838;16.490;2024-01-30T07:57:59;14.55;;;6.45;;
55372;SDS011;70018;47.838;16.490;2024-01-30T08:00:26;12.20;;;6.70;;
55372;SDS011;70018;47.838;16.490;2024-01-30T08:02:55;13.48;;;7.38;;
55372;SDS011;70018;47.838;16.490;2024-01-30T08:05:23;16.00;;;7.57;;
55372;SDS011;70018;47.838;16.490;2024-01-30T08:07:50;16.58;;;8.95;;
55372;SDS011;70018;47.838;16.490;2024-01-30T08:10:17;13.50;;;7.03;;
55372;SDS011;70018;47.838;16.490;2024-01-30T08:12:45;15.48;;;7.05;;
55372;SDS011;70018;47.838;16.490;2024-01-30T08:15:12;8.18;;;5.22;;
55372;SDS011;70018;47.838;16.490;2024-01-30T08:17:39;13.52;;;8.13;;
55372;SDS011;70018;47.838;16.490;2024-01-30T08:20:06;13.60;;;6.97;;
55372;SDS011;70018;47.838;16.490;2024-01-30T08:22:34;12.77;;;6.97;;
55372;SDS011;70018;47.838;16.490;2024-01-30T08:25:01;13.20;;;6.50;;
55372;SDS011;70018;47.838;16.490;2024-01-30T08:27:28;9.13;;;5.95;;
55372;SDS011;70018;47.838;16.490;2024-01-30T08:29:55;9.85;;;5.97;;
55372;SDS011;70018;47.838;16.490;2024-01-30T08:32:22;19.92;;;7.65;;
55372;SDS011;70018;47.838;16.490;2024-01-30T08:34:50;23.02;;;6.95;;
55372;SDS011;70018;47.838;16.490;2024-01-30T08:37:17;10.88;;;6.43;;
55372;SDS011;70018;47.838;16.490;2024-01-30T08:39:44;14.45;;;7.00;;
55372;SDS011;70018;47.838;16.490;2024-01-30T08:42:10;13.73;;;6.45;;
55372;SDS011;70018;47.838;16.490;2024-01-30T08:44:37;20.00;;;9.30;;
55372;SDS011;70018;47.838;16.490;2024-01-30T08:47:05;13.40;;;6.05;;
55372;SDS011;70018;47.838;16.490;2024-01-30T08:49:32;15.18;;;7.78;;
55372;SDS011;70018;47.838;16.490;2024-01-30T08:51:59;7.40;;;4.40;;
55372;SDS011;70018;47.838;16.490;2024-01-30T08:54:26;13.35;;;7.40;;
55372;SDS011;70018;47.838;16.490;2024-01-30T08:56:52;13.98;;;7.63;;
55372;SDS011;70018;47.838;16.490;2024-01-30T08:59:19;12.93;;;7.70;;
55372;SDS011;70018;47.838;16.490;2024-01-30T09:01:46;23.85;;;9.25;;
55372;SDS011;70018;47.838;16.490;2024-01-30T09:04:28;15.07;;;6.32;;
55372;SDS011;70018;47.838;16.490;2024-01-30T09:06:55;11.32;;;5.93;;
55372;SDS011;70018;47.838;16.490;2024-01-30T09:09:22;15.45;;;7.70;;
55372;SDS011;70018;47.838;16.490;2024-01-30T09:11:49;16.05;;;7.82;;
55372;SDS011;70018;47.838;16.490;2024-01-30T09:14:15;10.57;;;5.78;;
55372;SDS011;70018;47.838;16.490;2024-01-30T09:16:42;15.32;;;8.05;;
55372;SDS011;70018;47.838;16.490;2024-01-30T09:19:09;18.20;;;7.43;;
55372;SDS011;70018;47.838;16.490;2024-01-30T09:21:35;18.27;;;7.15;;
55372;SDS011;70018;47.838;16.490;2024-01-30T09:24:02;16.10;;;6.90;;
55372;SDS011;70018;47.838;16.490;2024-01-30T09:26:32;16.25;;;8.25;;
55372;SDS011;70018;47.838;16.490;2024-01-30T09:28:59;12.50;;;6.72;;
55372;SDS011;70018;47.838;16.490;2024-01-30T09:31:25;11.70;;;6.63;;
55372;SDS011;70018;47.838;16.490;2024-01-30T09:33:52;12.05;;;6.93;;
55372;SDS011;70018;47.838;16.490;2024-01-30T09:36:20;11.77;;;6.72;;
55372;SDS011;70018;47.838;16.490;2024-01-30T09:38:48;9.40;;;5.57;;
55372;SDS011;70018;47.838;16.490;2024-01-30T09:41:15;9.35;;;5.05;;
55372;SDS011;70018;47.838;16.490;2024-01-30T09:43:42;10.98;;;4.97;;
55372;SDS011;70018;47.838;16.490;2024-01-30T09:46:14;12.18;;;5.18;;
55372;SDS011;70018;47.838;16.490;2024-01-30T09:48:46;12.35;;;6.78;;
55372;SDS011;70018;47.838;16.490;2024-01-30T09:51:14;11.98;;;5.13;;
55372;SDS011;70018;47.838;16.490;2024-01-30T09:53:42;11.27;;;6.65;;
55372;SDS011;70018;47.838;16.490;2024-01-30T09:56:10;8.27;;;4.80;;
55372;SDS011;70018;47.838;16.490;2024-01-30T09:58:39;10.07;;;4.80;;
55372;SDS011;70018;47.838;16.490;2024-01-30T10:01:08;8.05;;;4.75;;
55372;SDS011;70018;47.838;16.490;2024-01-30T10:03:35;18.02;;;5.30;;
55372;SDS011;70018;47.838;16.490;2024-01-30T10:06:02;11.32;;;6.47;;
55372;SDS011;70018;47.838;16.490;2024-01-30T10:08:29;12.70;;;4.88;;
55372;SDS011;70018;47.838;16.490;2024-01-30T10:10:56;7.75;;;4.97;;
55372;SDS011;70018;47.838;16.490;2024-01-30T10:13:25;17.30;;;4.70;;
55372;SDS011;70018;47.838;16.490;2024-01-30T10:15:52;13.30;;;5.47;;
55372;SDS011;70018;47.838;16.490;2024-01-30T10:18:19;9.13;;;5.32;;
55372;SDS011;70018;47.838;16.490;2024-01-30T10:20:46;6.93;;;4.78;;
55372;SDS011;70018;47.838;16.490;2024-01-30T10:23:13;13.45;;;6.07;;
55372;SDS011;70018;47.838;16.490;2024-01-30T10:25:40;13.15;;;5.78;;
55372;SDS011;70018;47.838;16.490;2024-01-30T10:28:07;5.85;;;4.47;;
55372;SDS011;70018;47.838;16.490;2024-01-30T10:30:33;13.77;;;5.40;;
55372;SDS011;70018;47.838;16.490;2024-01-30T10:33:00;9.02;;;5.32;;
55372;SDS011;70018;47.838;16.490;2024-01-30T10:35:27;9.45;;;4.13;;
55372;SDS011;70018;47.838;16.490;2024-01-30T10:37:54;8.88;;;5.00;;
55372;SDS011;70018;47.838;16.490;2024-01-30T10:40:27;8.88;;;4.93;;
55372;SDS011;70018;47.838;16.490;2024-01-30T10:42:55;6.82;;;4.22;;
55372;SDS011;70018;47.838;16.490;2024-01-30T10:45:23;8.02;;;4.03;;
55372;SDS011;70018;47.838;16.490;2024-01-30T10:47:55;9.57;;;3.78;;
55372;SDS011;70018;47.838;16.490;2024-01-30T10:50:24;6.47;;;4.03;;
55372;SDS011;70018;47.838;16.490;2024-01-30T10:52:52;9.40;;;4.40;;
55372;SDS011;70018;47.838;16.490;2024-01-30T10:55:21;11.25;;;4.65;;
55372;SDS011;70018;47.838;16.490;2024-01-30T10:57:49;7.50;;;3.97;;
55372;SDS011;70018;47.838;16.490;2024-01-30T11:00:17;8.45;;;4.57;;
55372;SDS011;70018;47.838;16.490;2024-01-30T11:02:46;7.75;;;5.15;;
55372;SDS011;70018;47.838;16.490;2024-01-30T11:05:13;7.20;;;3.78;;
55372;SDS011;70018;47.838;16.490;2024-01-30T11:07:42;8.10;;;4.55;;
55372;SDS011;70018;47.838;16.490;2024-01-30T11:10:09;10.38;;;4.32;;
55372;SDS011;70018;47.838;16.490;2024-01-30T11:12:40;8.65;;;3.75;;
55372;SDS011;70018;47.838;16.490;2024-01-30T11:20:36;10.13;;;4.47;;
55372;SDS011;70018;47.838;16.490;2024-01-30T11:23:11;7.38;;;3.42;;
55372;SDS011;70018;47.838;16.490;2024-01-30T11:25:38;10.00;;;4.07;;
55372;SDS011;70018;47.838;16.490;2024-01-30T11:28:05;7.68;;;3.50;;
55372;SDS011;70018;47.838;16.490;2024-01-30T11:30:32;6.40;;;3.53;;
55372;SDS011;70018;47.838;16.490;2024-01-30T11:35:43;7.32;;;3.05;;
55372;SDS011;70018;47.838;16.490;2024-01-30T11:38:13;5.82;;;2.92;;
55372;SDS011;70018;47.838;16.490;2024-01-30T11:40:41;5.85;;;3.63;;
55372;SDS011;70018;47.838;16.490;2024-01-30T11:43:08;8.82;;;3.70;;
55372;SDS011;70018;47.838;16.490;2024-01-30T11:45:36;5.68;;;3.28;;
55372;SDS011;70018;47.838;16.490;2024-01-30T11:48:03;8.23;;;4.30;;
55372;SDS011;70018;47.838;16.490;2024-01-30T11:50:34;7.45;;;3.67;;
55372;SDS011;70018;47.838;16.490;2024-01-30T11:53:05;7.78;;;3.92;;
55372;SDS011;70018;47.838;16.490;2024-01-30T11:55:32;10.07;;;4.78;;
55372;SDS011;70018;47.838;16.490;2024-01-30T11:58:01;8.95;;;3.15;;
55372;SDS011;70018;47.838;16.490;2024-01-30T12:00:29;6.93;;;2.85;;
55372;SDS011;70018;47.838;16.490;2024-01-30T12:02:57;5.30;;;3.50;;
55372;SDS011;70018;47.838;16.490;2024-01-30T12:05:26;5.28;;;3.00;;
55372;SDS011;70018;47.838;16.490;2024-01-30T12:07:54;7.25;;;3.90;;
55372;SDS011;70018;47.838;16.490;2024-01-30T12:10:21;8.57;;;4.05;;
55372;SDS011;70018;47.838;16.490;2024-01-30T12:12:51;8.23;;;2.95;;
55372;SDS011;70018;47.838;16.490;2024-01-30T12:15:19;8.13;;;4.25;;
55372;SDS011;70018;47.838;16.490;2024-01-30T12:17:48;5.88;;;3.13;;
55372;SDS011;70018;47.838;16.490;2024-01-30T12:20:17;10.65;;;3.50;;
55372;SDS011;70018;47.838;16.490;2024-01-30T12:22:48;5.53;;;2.90;;
55372;SDS011;70018;47.838;16.490;2024-01-30T12:25:17;7.40;;;3.45;;
55372;SDS011;70018;47.838;16.490;2024-01-30T12:27:45;6.82;;;3.88;;
55372;SDS011;70018;47.838;16.490;2024-01-30T12:30:17;7.63;;;3.58;;
55372;SDS011;70018;47.838;16.490;2024-01-30T12:32:47;5.32;;;2.78;;
55372;SDS011;70018;47.838;16.490;2024-01-30T12:35:18;9.95;;;4.80;;
55372;SDS011;70018;47.838;16.490;2024-01-30T12:37:47;7.35;;;3.28;;
55372;SDS011;70018;47.838;16.490;2024-01-30T12:40:15;6.32;;;3.15;;
55372;SDS011;70018;47.838;16.490;2024-01-30T12:42:42;8.18;;;3.40;;
55372;SDS011;70018;47.838;16.490;2024-01-30T12:45:09;5.32;;;4.03;;
55372;SDS011;70018;47.838;16.490;2024-01-30T12:47:36;5.53;;;3.17;;
55372;SDS011;70018;47.838;16.490;2024-01-30T12:50:03;3.88;;;2.80;;
55372;SDS011;70018;47.838;16.490;2024-01-30T12:52:31;7.60;;;3.78;;
55372;SDS011;70018;47.838;16.490;2024-01-30T12:54:58;6.90;;;2.88;;
55372;SDS011;70018;47.838;16.490;2024-01-30T12:57:25;5.63;;;3.13;;
55372;SDS011;70018;47.838;16.490;2024-01-30T12:59:51;6.82;;;3.95;;
55372;SDS011;70018;47.838;16.490;2024-01-30T13:02:18;7.53;;;4.07;;
55372;SDS011;70018;47.838;16.490;2024-01-30T13:04:45;11.55;;;4.25;;
55372;SDS011;70018;47.838;16.490;2024-01-30T13:07:15;5.85;;;3.00;;
55372;SDS011;70018;47.838;16.490;2024-01-30T13:09:42;5.50;;;3.03;;
55372;SDS011;70018;47.838;16.490;2024-01-30T13:12:09;4.75;;;2.83;;
55372;SDS011;70018;47.838;16.490;2024-01-30T13:14:36;5.68;;;2.83;;
55372;SDS011;70018;47.838;16.490;2024-01-30T13:17:02;5.63;;;3.55;;
55372;SDS011;70018;47.838;16.490;2024-01-30T13:19:29;6.13;;;2.95;;
55372;SDS011;70018;47.838;16.490;2024-01-30T13:21:56;6.47;;;3.10;;
55372;SDS011;70018;47.838;16.490;2024-01-30T13:24:23;9.40;;;3.30;;
55372;SDS011;70018;47.838;16.490;2024-01-30T13:26:49;4.60;;;2.80;;
55372;SDS011;70018;47.838;16.490;2024-01-30T13:29:16;4.28;;;2.78;;
55372;SDS011;70018;47.838;16.490;2024-01-30T13:31:43;3.42;;;2.45;;
55372;SDS011;70018;47.838;16.490;2024-01-30T13:34:12;5.25;;;3.15;;
55372;SDS011;70018;47.838;16.490;2024-01-30T13:36:40;5.70;;;3.08;;
55372;SDS011;70018;47.838;16.490;2024-01-30T13:39:07;4.85;;;2.70;;
55372;SDS011;70018;47.838;16.490;2024-01-30T13:41:36;9.55;;;3.55;;
55372;SDS011;70018;47.838;16.490;2024-01-30T13:44:04;6.68;;;3.00;;
55372;SDS011;70018;47.838;16.490;2024-01-30T13:46:30;5.57;;;2.55;;
55372;SDS011;70018;47.838;16.490;2024-01-30T13:48:58;5.43;;;3.00;;
55372;SDS011;70018;47.838;16.490;2024-01-30T13:51:26;7.10;;;3.72;;
55372;SDS011;70018;47.838;16.490;2024-01-30T13:53:53;7.10;;;3.28;;
55372;SDS011;70018;47.838;16.490;2024-01-30T13:56:20;7.60;;;3.17;;
55372;SDS011;70018;47.838;16.490;2024-01-30T13:58:50;5.95;;;3.80;;
55372;SDS011;70018;47.838;16.490;2024-01-30T14:01:17;4.78;;;2.95;;
55372;SDS011;70018;47.838;16.490;2024-01-30T14:03:44;5.22;;;2.05;;
55372;SDS011;70018;47.838;16.490;2024-01-30T14:06:11;3.53;;;1.90;;
55372;SDS011;70018;47.838;16.490;2024-01-30T14:08:39;3.65;;;1.90;;
55372;SDS011;70018;47.838;16.490;2024-01-30T14:11:08;4.63;;;2.22;;
55372;SDS011;70018;47.838;16.490;2024-01-30T14:13:36;7.20;;;3.15;;
55372;SDS011;70018;47.838;16.490;2024-01-30T14:16:02;7.28;;;3.15;;
55372;SDS011;70018;47.838;16.490;2024-01-30T14:18:32;8.23;;;3.85;;
55372;SDS011;70018;47.838;16.490;2024-01-30T14:20:59;4.75;;;2.55;;
55372;SDS011;70018;47.838;16.490;2024-01-30T14:23:26;4.22;;;1.92;;
55372;SDS011;70018;47.838;16.490;2024-01-30T14:25:52;3.45;;;1.73;;
55372;SDS011;70018;47.838;16.490;2024-01-30T14:28:19;5.47;;;3.42;;
55372;SDS011;70018;47.838;16.490;2024-01-30T14:30:46;4.43;;;3.05;;
55372;SDS011;70018;47.838;16.490;2024-01-30T14:33:13;4.85;;;2.70;;
55372;SDS011;70018;47.838;16.490;2024-01-30T14:35:40;7.60;;;3.50;;
55372;SDS011;70018;47.838;16.490;2024-01-30T14:38:06;6.95;;;3.15;;